Time;durP1;ratioP1;P1;durP2;ratioP2;P2;SDS_P1;SDS_P2;PMS_P1;PMS_P2;Temp;Humidity;BMP_temperature;BMP_pressure;BME280_temperature;BME280_humidity;BME280_pressure;Samples;Min_cycle;Max_cycle;Signal;HPM_P1;HPM_P2
2023/01/29 00:00:35;;;;;;;60.60;41.55;;;;;;;-2.84;100.00;102986.56;5092166;28;20024;-53
2023/01/29 00:03:00;;;;;;;56.55;38.95;;;;;;;-2.81;100.00;102984.44;5093233;28;20032;-53
2023/01/29 00:05:26;;;;;;;62.03;44.55;;;;;;;-2.79;100.00;102980.44;5092765;28;20038;-53
2023/01/29 00:07:51;;;;;;;65.45;42.83;;;;;;;-2.76;100.00;102977.38;5092500;28;20036;-54
2023/01/29 00:10:16;;;;;;;65.65;42.60;;;;;;;-2.71;100.00;102971.25;5093521;28;20103;-54
2023/01/29 00:12:41;;;;;;;60.75;39.92;;;;;;;-2.67;100.00;102955.78;5092683;28;20513;-54
2023/01/29 00:15:07;;;;;;;59.55;40.33;;;;;;;-2.65;100.00;102965.31;5092479;28;20077;-54
2023/01/29 00:17:32;;;;;;;59.05;41.47;;;;;;;-2.63;100.00;102962.06;5092963;28;20024;-53
2023/01/29 00:19:58;;;;;;;60.28;40.72;;;;;;;-2.61;100.00;102964.03;5093304;28;20521;-54
2023/01/29 00:22:23;;;;;;;63.58;43.38;;;;;;;-2.56;100.00;102946.91;5092192;28;20378;-54
2023/01/29 00:24:48;;;;;;;43.13;15.77;;;;;;;-2.49;100.00;102957.91;5092516;28;20438;-53
2023/01/29 00:27:14;;;;;;;57.58;38.65;;;;;;;-2.48;100.00;102946.16;5092846;28;20077;-54
2023/01/29 00:29:40;;;;;;;38.65;15.52;;;;;;;-2.41;100.00;102947.81;5092347;28;20020;-54
2023/01/29 00:32:05;;;;;;;53.80;37.33;;;;;;;-2.41;100.00;102948.69;5093006;28;20012;-53
2023/01/29 00:34:31;;;;;;;40.35;15.27;;;;;;;-2.35;100.00;102956.97;5092215;28;20031;-54
2023/01/29 00:37:03;;;;;;;55.85;37.20;;;;;;;-2.35;100.00;102951.00;5092246;28;20047;-54
2023/01/29 00:39:37;;;;;;;55.22;36.85;;;;;;;-2.35;100.00;102940.91;5092598;28;20468;-54
2023/01/29 00:44:59;;;;;;;55.63;37.70;;;;;;;-2.33;100.00;102932.78;5092748;28;20046;-53
2023/01/29 00:47:32;;;;;;;51.78;34.83;;;;;;;-2.33;100.00;102932.78;5092978;28;20024;-53
2023/01/29 00:49:58;;;;;;;53.00;36.08;;;;;;;-2.31;100.00;102925.41;5092178;28;20020;-54
2023/01/29 00:52:24;;;;;;;38.22;13.05;;;;;;;-2.25;100.00;102920.16;5092614;28;20498;-53
2023/01/29 00:54:54;;;;;;;51.28;35.20;;;;;;;-2.26;100.00;102918.34;5092270;28;20016;-53
2023/01/29 00:57:20;;;;;;;55.80;38.03;;;;;;;-2.29;100.00;102915.47;5092004;28;20154;-54
2023/01/29 00:59:45;;;;;;;53.65;35.35;;;;;;;-2.31;100.00;102910.25;5092369;28;20115;-54
2023/01/29 01:04:54;;;;;;;56.67;36.47;;;;;;;-2.41;100.00;102910.81;5091901;28;20108;-54
2023/01/29 01:07:19;;;;;;;57.15;37.00;;;;;;;-2.45;100.00;102907.75;5092703;28;20492;-54
2023/01/29 01:12:29;;;;;;;59.30;39.47;;;;;;;-2.59;100.00;102906.19;5096618;28;20082;-54
2023/01/29 01:14:55;;;;;;;58.78;37.92;;;;;;;-2.62;100.00;102915.91;5096576;28;20051;-54
2023/01/29 01:17:20;;;;;;;59.55;39.10;;;;;;;-2.61;100.00;102923.66;5095734;28;20020;-55
2023/01/29 01:19:45;;;;;;;58.65;40.05;;;;;;;-2.65;100.00;102922.41;5096217;28;20388;-54
2023/01/29 01:22:11;;;;;;;55.53;38.35;;;;;;;-2.67;100.00;102908.69;5096330;28;20077;-54
2023/01/29 01:24:37;;;;;;;58.08;37.20;;;;;;;-2.65;100.00;102911.41;5095133;28;20031;-53
2023/01/29 01:27:02;;;;;;;58.30;38.25;;;;;;;-2.63;100.00;102909.03;5096436;28;20031;-54
2023/01/29 01:29:27;;;;;;;60.08;38.80;;;;;;;-2.67;100.00;102908.69;5095777;28;20035;-54
2023/01/29 01:31:53;;;;;;;40.28;15.30;;;;;;;-2.59;100.00;102919.69;5095488;28;20043;-54
2023/01/29 01:34:18;;;;;;;64.18;39.33;;;;;;;-2.65;100.00;102914.84;5096211;28;20035;-54
2023/01/29 01:36:44;;;;;;;59.42;38.83;;;;;;;-2.65;100.00;102917.38;5096009;28;20106;-53
2023/01/29 01:39:09;;;;;;;59.30;40.88;;;;;;;-2.62;100.00;102916.81;5095141;28;20016;-54
2023/01/29 01:41:34;;;;;;;59.70;40.15;;;;;;;-2.61;100.00;102917.72;5095913;28;20494;-54
2023/01/29 01:44:02;;;;;;;64.55;41.30;;;;;;;-2.62;100.00;102921.88;5096095;28;20035;-54
2023/01/29 01:46:29;;;;;;;62.63;39.92;;;;;;;-2.60;100.00;102910.31;5094943;28;20024;-53
2023/01/29 01:49:02;;;;;;;58.10;38.83;;;;;;;-2.59;100.00;102911.22;5095929;28;20031;-53
2023/01/29 01:51:30;;;;;;;63.00;40.33;;;;;;;-2.62;100.00;102920.94;5095428;28;20099;-54
2023/01/29 01:54:06;;;;;;;59.75;38.60;;;;;;;-2.63;100.00;102914.09;5095129;28;20100;-54
2023/01/29 01:56:39;;;;;;;43.00;16.67;;;;;;;-2.57;100.00;102919.84;5095624;28;20032;-55
2023/01/29 01:59:08;;;;;;;58.72;39.15;;;;;;;-2.63;100.00;102919.13;5095589;28;20031;-53
2023/01/29 02:01:34;;;;;;;61.47;40.92;;;;;;;-2.64;100.00;102920.78;5094801;28;20024;-53
2023/01/29 02:09:45;;;;;;;40.75;16.50;;;;;;;-2.57;100.00;102924.91;5095422;28;20035;-54
2023/01/29 02:12:12;;;;;;;66.72;41.72;;;;;;;-2.63;100.00;102924.19;5095614;28;20032;-54
2023/01/29 02:14:40;;;;;;;62.15;40.38;;;;;;;-2.60;100.00;102930.50;5094277;28;20021;-54
2023/01/29 02:17:07;;;;;;;65.35;42.13;;;;;;;-2.61;100.00;102930.31;5095502;28;20027;-54
2023/01/29 02:19:45;;;;;;;62.00;40.47;;;;;;;-2.60;100.00;102934.66;5094966;28;20035;-55
2023/01/29 02:22:40;;;;;;;65.25;41.92;;;;;;;-2.58;100.00;102933.19;5093711;28;20040;-53
2023/01/29 02:25:40;;;;;;;43.33;16.25;;;;;;;-2.51;100.00;102934.09;5095014;28;20038;-53
2023/01/29 02:28:20;;;;;;;65.25;42.38;;;;;;;-2.54;100.00;102932.84;5025255;28;20040;-55
2023/01/29 02:31:11;;;;;;;64.40;42.22;;;;;;;-2.49;100.00;102940.22;5094810;28;20054;-54
2023/01/29 02:33:58;;;;;;;61.15;40.17;;;;;;;-2.45;100.00;102936.44;5094700;28;20028;-54
2023/01/29 02:36:36;;;;;;;64.82;42.72;;;;;;;-2.42;100.00;102934.25;5094432;28;20035;-54
2023/01/29 02:39:28;;;;;;;67.20;43.40;;;;;;;-2.40;100.00;102934.44;5094914;28;20379;-54
2023/01/29 02:42:14;;;;;;;104.88;64.90;;;;;;;-2.38;100.00;102928.81;5089899;28;20036;-54
2023/01/29 02:44:45;;;;;;;73.95;47.50;;;;;;;-2.38;100.00;102928.81;5094496;28;20026;-54
2023/01/29 02:47:20;;;;;;;70.22;46.05;;;;;;;-2.36;100.00;102927.41;5094856;28;20034;-54
2023/01/29 02:50:01;;;;;;;69.97;45.53;;;;;;;-2.30;100.00;102933.88;5093740;28;20066;-54
2023/01/29 02:52:48;;;;;;;80.90;52.92;;;;;;;-2.28;100.00;102929.91;5094262;28;20439;-54
2023/01/29 02:55:24;;;;;;;69.00;45.85;;;;;;;-2.27;100.00;102921.59;5094478;28;20028;-54
2023/01/29 02:57:54;;;;;;;65.07;42.50;;;;;;;-2.24;100.00;102921.97;5093930;28;20148;-55
2023/01/29 03:00:23;;;;;;;45.58;16.73;;;;;;;-2.18;100.00;102923.56;5094432;28;20031;-53
2023/01/29 03:03:05;;;;;;;73.32;46.25;;;;;;;-2.22;100.00;102915.44;5093556;28;20024;-54
2023/01/29 03:05:42;;;;;;;82.15;52.88;;;;;;;-2.23;100.00;102922.13;5094029;28;20491;-54
2023/01/29 03:08:11;;;;;;;49.10;18.02;;;;;;;-2.13;100.00;102925.69;5094460;28;20028;-54
2023/01/29 03:10:42;;;;;;;69.82;42.47;;;;;;;-2.19;100.00;102920.84;5093222;28;20027;-54
2023/01/29 03:13:22;;;;;;;73.60;48.65;;;;;;;-2.19;100.00;102915.81;5094352;28;20384;-53
2023/01/29 03:16:00;;;;;;;70.20;43.63;;;;;;;-2.14;100.00;102909.66;5093670;28;20488;-54
2023/01/29 03:18:29;;;;;;;;;;;;;;;-2.06;100.00;102919.00;5093847;28;20410;-55
2023/01/29 03:21:00;;;;;;;49.90;20.40;;;;;;;-2.04;100.00;102917.56;5099586;28;20278;-55
2023/01/29 03:32:07;;;;;;;65.43;42.08;;;;;;;-2.01;100.00;102907.78;5113360;28;20054;-54
2023/01/29 03:34:40;;;;;;;47.60;18.35;;;;;;;-1.93;100.00;102901.06;5113972;28;20020;-54
2023/01/29 03:37:18;;;;;;;63.75;42.00;;;;;;;-1.94;100.00;102914.44;5114013;28;20032;-53
2023/01/29 03:39:43;;;;;;;65.03;42.75;;;;;;;-1.91;100.00;102904.69;5113171;28;20470;-54
2023/01/29 03:42:09;;;;;;;48.40;17.73;;;;;;;-1.84;100.00;102911.31;5114021;28;20111;-54
2023/01/29 03:44:49;;;;;;;44.67;17.33;;;;;;;-1.80;100.00;102903.34;5113640;28;20023;-54
2023/01/29 03:47:23;;;;;;;65.93;43.00;;;;;;;-1.82;100.00;102889.66;5114101;28;20028;-54
2023/01/29 03:50:16;;;;;;;67.85;43.85;;;;;;;-1.78;100.00;102899.38;5113493;28;20356;-55
2023/01/29 03:53:19;;;;;;;68.55;43.38;;;;;;;-1.74;100.00;102882.91;5112702;28;20479;-55
2023/01/29 03:55:57;;;;;;;45.45;16.95;;;;;;;-1.68;100.00;102879.47;5095438;28;20035;-55
2023/01/29 03:58:31;;;;;;;74.20;44.47;;;;;;;-1.69;100.00;102882.72;5113688;28;20031;-54
2023/01/29 04:01:01;;;;;;;76.03;45.40;;;;;;;-1.68;100.00;102884.53;5113098;28;20036;-53
2023/01/29 04:03:36;;;;;;;74.30;45.50;;;;;;;-1.66;100.00;102890.63;5113527;28;20052;-55
2023/01/29 04:06:22;;;;;;;65.55;41.78;;;;;;;-1.67;100.00;102871.13;5112665;28;20031;-53
2023/01/29 04:08:53;;;;;;;69.35;45.40;;;;;;;-1.63;100.00;102869.84;5113313;28;20390;-55
2023/01/29 04:11:21;;;;;;;69.25;43.22;;;;;;;-1.62;100.00;102871.66;5113428;28;20414;-55
2023/01/29 04:13:46;;;;;;;72.28;45.25;;;;;;;-1.60;100.00;102866.75;5112676;28;20072;-54
2023/01/29 04:16:18;;;;;;;51.70;18.48;;;;;;;-1.55;100.00;102868.16;5113446;28;20032;-54
2023/01/29 04:18:45;;;;;;;76.20;46.25;;;;;;;-1.58;100.00;102867.84;5113091;28;20417;-53
2023/01/29 04:21:12;;;;;;;71.20;45.63;;;;;;;-1.58;100.00;102860.25;5112724;28;20031;-54
2023/01/29 04:23:37;;;;;;;77.53;47.03;;;;;;;-1.56;100.00;102866.34;5113030;28;20026;-54
2023/01/29 04:26:14;;;;;;;75.75;46.47;;;;;;;-1.55;100.00;102871.63;5113085;28;20098;-54
2023/01/29 04:28:58;;;;;;;76.00;46.53;;;;;;;-1.54;100.00;102864.91;5112747;28;20080;-55
2023/01/29 04:31:29;;;;;;;78.50;46.60;;;;;;;-1.52;100.00;102876.13;5113289;28;20826;-55
2023/01/29 04:34:03;;;;;;;54.70;18.40;;;;;;;-1.44;100.00;102874.44;5112747;28;20108;-54
2023/01/29 04:36:53;;;;;;;68.93;45.10;;;;;;;-1.48;100.00;102873.19;5113058;28;20085;-55
2023/01/29 04:39:29;;;;;;;76.15;47.25;;;;;;;-1.50;100.00;102859.47;5113305;28;20030;-54
2023/01/29 04:42:20;;;;;;;50.42;16.98;;;;;;;-1.42;100.00;102846.06;5112517;28;20065;-54
2023/01/29 04:44:48;;;;;;;75.13;47.17;;;;;;;-1.47;100.00;102847.19;5113618;28;20074;-55
2023/01/29 04:47:35;;;;;;;74.55;46.92;;;;;;;-1.46;100.00;102843.88;5117386;28;20027;-54
2023/01/29 04:50:07;;;;;;;75.57;47.70;;;;;;;-1.44;100.00;102841.56;5116983;28;20046;-54
2023/01/29 04:52:50;;;;;;;79.82;48.13;;;;;;;-1.42;100.00;102837.53;5117079;28;20421;-55
2023/01/29 04:55:40;;;;;;;50.88;19.50;;;;;;;-1.37;100.00;102824.69;5116537;28;20028;-54
2023/01/29 04:58:17;;;;;;;60.42;21.27;;;;;;;-1.36;100.00;102821.41;5117442;28;20027;-55
2023/01/29 05:00:47;;;;;;;79.70;49.63;;;;;;;-1.41;100.00;102809.00;5116990;28;20039;-54
2023/01/29 05:03:14;;;;;;;78.85;49.03;;;;;;;-1.40;100.00;102820.91;5116207;28;20047;-55
2023/01/29 05:05:43;;;;;;;84.03;49.17;;;;;;;-1.42;100.00;102818.22;5116682;28;20038;-54
2023/01/29 05:08:13;;;;;;;81.65;50.65;;;;;;;-1.41;100.00;102809.88;5116739;28;20531;-54
2023/01/29 05:10:38;;;;;;;80.97;50.97;;;;;;;-1.39;100.00;102810.97;5116344;28;20026;-54
2023/01/29 05:13:07;;;;;;;87.10;52.53;;;;;;;-1.38;100.00;102825.41;5117021;28;20019;-54
2023/01/29 05:15:37;;;;;;;77.63;48.53;;;;;;;-1.38;100.00;102816.91;5116388;28;20027;-53
2023/01/29 05:18:07;;;;;;;83.25;52.22;;;;;;;-1.37;100.00;102817.09;5116179;28;20428;-54
2023/01/29 05:20:36;;;;;;;88.70;53.40;;;;;;;-1.37;100.00;102814.56;5116662;28;20137;-54
2023/01/29 05:23:02;;;;;;;84.38;53.15;;;;;;;-1.35;100.00;102810.56;5116687;28;20024;-54
2023/01/29 05:25:30;;;;;;;86.68;52.35;;;;;;;-1.33;100.00;102803.13;5115856;28;20038;-54
2023/01/29 05:28:06;;;;;;;90.38;53.55;;;;;;;-1.31;100.00;102801.69;5116682;28;20027;-54
2023/01/29 05:30:36;;;;;;;90.50;54.17;;;;;;;-1.29;100.00;102799.31;5115481;28;20039;-55
2023/01/29 05:33:02;;;;;;;88.03;53.03;;;;;;;-1.30;100.00;102793.38;5116794;28;20023;-54
2023/01/29 05:35:28;;;;;;;90.13;55.38;;;;;;;-1.28;100.00;102788.47;5116424;28;20039;-54
2023/01/29 05:37:55;;;;;;;85.70;54.47;;;;;;;-1.26;100.00;102789.56;5115649;28;20442;-53
2023/01/29 05:40:22;;;;;;;89.20;55.30;;;;;;;-1.24;100.00;102788.97;5116501;28;20047;-54
2023/01/29 05:42:47;;;;;;;91.35;54.50;;;;;;;-1.24;100.00;102786.47;5116314;28;20036;-53
2023/01/29 05:45:12;;;;;;;88.43;54.40;;;;;;;-1.21;100.00;102798.53;5115308;28;20061;-54
2023/01/29 05:47:37;;;;;;;88.15;54.35;;;;;;;-1.19;100.00;102794.53;5116150;28;20130;-54
2023/01/29 05:50:04;;;;;;;91.75;56.55;;;;;;;-1.17;100.00;102800.66;5116125;28;20023;-54
2023/01/29 05:52:30;;;;;;;90.07;57.03;;;;;;;-1.15;100.00;102806.78;5115367;28;20020;-54
2023/01/29 05:54:55;;;;;;;90.20;55.92;;;;;;;-1.13;100.00;102814.56;5116121;28;20038;-55
2023/01/29 05:57:21;;;;;;;89.75;54.58;;;;;;;-1.13;100.00;102815.44;5116066;28;20466;-54
2023/01/29 05:59:46;;;;;;;90.25;56.47;;;;;;;-1.12;100.00;102814.72;5115218;28;20023;-55
2023/01/29 06:02:11;;;;;;;90.78;56.67;;;;;;;-1.12;100.00;102812.19;5116184;28;20038;-54
2023/01/29 06:04:36;;;;;;;97.53;57.58;;;;;;;-1.12;100.00;102812.19;5115279;28;20043;-55
2023/01/29 06:07:03;;;;;;;97.22;58.63;;;;;;;-1.08;100.00;102810.88;5115430;28;20028;-54
2023/01/29 06:09:29;;;;;;;102.73;59.77;;;;;;;-1.08;100.00;102815.94;5115698;28;20034;-54
2023/01/29 06:11:54;;;;;;;100.32;60.03;;;;;;;-1.07;100.00;102817.72;5115528;28;20273;-54
2023/01/29 06:14:19;;;;;;;95.07;58.13;;;;;;;-1.06;100.00;102820.44;5115096;28;20108;-54
2023/01/29 06:16:45;;;;;;;95.32;56.35;;;;;;;-1.06;100.00;102833.09;5115657;28;20072;-54
2023/01/29 06:19:10;;;;;;;96.57;57.78;;;;;;;-1.05;100.00;102837.41;5115604;28;20168;-54
2023/01/29 06:21:35;;;;;;;98.78;56.90;;;;;;;-1.03;100.00;102835.94;5114770;28;20475;-54
2023/01/29 06:24:00;;;;;;;96.25;59.45;;;;;;;-1.02;100.00;102835.22;5115789;28;20028;-54
2023/01/29 06:26:26;;;;;;;100.60;61.08;;;;;;;-0.99;100.00;102837.19;5114787;28;20055;-54
2023/01/29 06:28:51;;;;;;;94.85;57.60;;;;;;;-0.98;100.00;102827.94;5115068;28;20019;-54
2023/01/29 06:31:17;;;;;;;96.30;58.45;;;;;;;-0.97;100.00;102805.31;5115348;28;20038;-54
2023/01/29 06:33:43;;;;;;;93.38;57.28;;;;;;;-0.96;100.00;102796.13;5114562;28;20102;-54
2023/01/29 06:36:08;;;;;;;93.28;59.28;;;;;;;-0.96;100.00;102786.00;5115549;28;20111;-54
2023/01/29 06:38:34;;;;;;;95.82;58.75;;;;;;;-0.96;100.00;102776.75;5115060;28;20053;-53
2023/01/29 06:40:59;;;;;;;96.78;59.95;;;;;;;-0.94;100.00;102781.97;5114622;28;20447;-53
2023/01/29 06:43:25;;;;;;;103.03;61.28;;;;;;;-0.94;100.00;102795.56;5115127;28;20042;-53
2023/01/29 06:45:56;;;;;;;100.13;61.28;;;;;;;-0.92;100.00;102795.72;5114971;28;20505;-54
2023/01/29 06:48:23;;;;;;;98.32;60.83;;;;;;;-0.91;100.00;102793.34;5114501;28;20027;-54
2023/01/29 06:50:49;;;;;;;183.63;108.90;;;;;;;-0.90;100.00;102790.09;5114793;28;20520;-54
2023/01/29 06:53:16;;;;;;;107.32;66.10;;;;;;;-0.91;100.00;102787.38;5114797;28;20278;-55
2023/01/29 06:55:42;;;;;;;119.03;83.47;;;;;;;-0.88;100.00;102785.19;5114070;28;20053;-54
2023/01/29 06:58:09;;;;;;;98.95;61.88;;;;;;;-0.89;100.00;102785.91;5114829;28;20028;-55
2023/01/29 07:00:35;;;;;;;100.85;64.25;;;;;;;-0.87;100.00;102786.97;5114497;28;20035;-54
2023/01/29 07:03:00;;;;;;;98.97;61.13;;;;;;;-0.86;100.00;102788.78;5114174;28;20034;-55
2023/01/29 07:05:26;;;;;;;103.10;62.75;;;;;;;-0.86;100.00;102786.25;5114577;28;20039;-54
2023/01/29 07:07:51;;;;;;;99.70;61.35;;;;;;;-0.86;100.00;102789.66;5113969;28;20467;-55
2023/01/29 07:10:16;;;;;;;99.55;62.80;;;;;;;-0.85;100.00;102780.47;5114121;28;20032;-54
2023/01/29 07:12:42;;;;;;;68.53;25.83;;;;;;;-0.79;100.00;102783.63;5114316;28;20111;-55
2023/01/29 07:15:08;;;;;;;99.05;60.85;;;;;;;-0.81;100.00;102791.78;5114470;28;20073;-54
2023/01/29 07:17:33;;;;;;;101.93;61.42;;;;;;;-0.82;100.00;102801.03;5113471;28;20060;-54
2023/01/29 07:19:58;;;;;;;102.30;63.42;;;;;;;-0.80;100.00;102794.50;5114458;28;20049;-53
2023/01/29 07:22:23;;;;;;;99.47;59.35;;;;;;;-0.81;100.00;102792.72;5113764;28;20102;-55
2023/01/29 07:24:49;;;;;;;97.93;60.22;;;;;;;-0.81;100.00;102790.19;5113226;28;20027;-54
2023/01/29 07:27:14;;;;;;;101.30;61.78;;;;;;;-0.79;100.00;102791.22;5114189;28;20051;-54
2023/01/29 07:29:39;;;;;;;94.13;59.60;;;;;;;-0.79;100.00;102793.75;5113522;28;20078;-54
2023/01/29 07:32:05;;;;;;;100.95;62.15;;;;;;;-0.77;100.00;102802.41;5113507;28;20028;-53
2023/01/29 07:34:30;;;;;;;105.55;62.70;;;;;;;-0.77;100.00;102789.75;5113561;28;20023;-55
2023/01/29 07:36:55;;;;;;;99.47;58.90;;;;;;;-0.76;100.00;102780.50;5113130;28;20050;-53
2023/01/29 07:39:21;;;;;;;95.50;59.45;;;;;;;-0.75;100.00;102787.38;5113805;28;20062;-55
2023/01/29 07:41:47;;;;;;;100.03;60.55;;;;;;;-0.76;100.00;102773.84;5113671;28;20016;-52
2023/01/29 07:44:12;;;;;;;98.22;61.65;;;;;;;-0.75;100.00;102778.19;5113415;28;20019;-55
2023/01/29 07:46:37;;;;;;;99.93;60.97;;;;;;;-0.75;100.00;102783.25;5113706;28;20038;-54
2023/01/29 07:49:03;;;;;;;105.00;62.33;;;;;;;-0.75;100.00;102787.38;5114103;28;20023;-54
2023/01/29 07:51:28;;;;;;;103.32;62.35;;;;;;;-0.74;100.00;102792.59;5112975;28;20443;-54
2023/01/29 07:53:53;;;;;;;104.80;63.75;;;;;;;-0.75;100.00;102793.38;5113900;28;20027;-54
2023/01/29 07:56:19;;;;;;;101.00;62.33;;;;;;;-0.74;100.00;102790.06;5113534;28;20417;-55
2023/01/29 07:58:44;;;;;;;73.30;26.85;;;;;;;-0.65;100.00;102782.56;5113212;28;20030;-54
2023/01/29 08:01:09;;;;;;;100.13;60.05;;;;;;;-0.71;100.00;102780.28;5113653;28;20027;-54
2023/01/29 08:03:35;;;;;;;101.45;61.67;;;;;;;-0.71;100.00;102770.16;5113071;28;20157;-55
2023/01/29 08:06:02;;;;;;;96.85;60.63;;;;;;;-0.69;100.00;102783.88;5113017;28;20031;-54
2023/01/29 08:08:27;;;;;;;100.30;60.00;;;;;;;-0.65;100.00;102779.16;5113355;28;20016;-54
2023/01/29 08:10:53;;;;;;;96.80;60.25;;;;;;;-0.67;100.00;102782.41;5113364;28;20087;-54
2023/01/29 08:13:18;;;;;;;99.15;61.78;;;;;;;-0.63;100.00;102777.66;5112946;28;20024;-55
2023/01/29 08:15:44;;;;;;;98.72;60.70;;;;;;;-0.63;100.00;102778.56;5113268;28;20049;-53
2023/01/29 08:18:09;;;;;;;96.93;60.42;;;;;;;-0.60;100.00;102780.53;5113421;28;20027;-54
2023/01/29 08:20:35;;;;;;;99.53;59.90;;;;;;;-0.60;100.00;102771.28;5111672;28;20069;-54
2023/01/29 08:23:03;;;;;;;97.18;57.30;;;;;;;-0.60;100.00;102772.94;5113448;28;20114;-54
2023/01/29 08:25:29;;;;;;;104.22;61.22;;;;;;;-0.60;100.00;102767.88;5112610;28;20470;-55
2023/01/29 08:27:59;;;;;;;96.22;58.53;;;;;;;-0.59;100.00;102767.13;5113066;28;20034;-54
2023/01/29 08:30:26;;;;;;;99.18;59.17;;;;;;;-0.60;100.00;102758.63;5113340;28;20035;-54
2023/01/29 08:32:51;;;;;;;70.45;26.30;;;;;;;-0.52;100.00;102764.50;5113208;28;20099;-54
2023/01/29 08:35:16;;;;;;;99.25;58.80;;;;;;;-0.57;100.00;102752.97;5112649;28;20119;-54
2023/01/29 08:37:41;;;;;;;98.20;60.38;;;;;;;-0.57;100.00;102750.44;5112967;28;20023;-55
2023/01/29 08:40:09;;;;;;;97.20;59.67;;;;;;;-0.55;100.00;102741.41;5112425;28;20032;-55
2023/01/29 08:42:35;;;;;;;88.47;58.15;;;;;;;-0.54;100.00;102740.66;5113182;28;20020;-55
2023/01/29 08:45:00;;;;;;;96.28;58.35;;;;;;;-0.49;100.00;102731.91;5113256;28;20030;-54
2023/01/29 08:47:25;;;;;;;89.28;56.55;;;;;;;-0.47;100.00;102722.81;5112216;28;20127;-55
2023/01/29 08:49:50;;;;;;;95.05;57.83;;;;;;;-0.44;100.00;102734.91;5113248;28;20081;-53
2023/01/29 08:52:16;;;;;;;98.70;58.25;;;;;;;-0.42;100.00;102734.31;5113158;28;20391;-54
2023/01/29 08:54:41;;;;;;;94.38;56.90;;;;;;;-0.36;100.00;102734.97;5112077;28;20119;-53
2023/01/29 08:57:06;;;;;;;91.85;57.35;;;;;;;-0.34;100.00;102738.56;5113077;28;20024;-54
2023/01/29 08:59:32;;;;;;;91.75;56.47;;;;;;;-0.30;100.00;102744.84;5112776;28;20471;-54
2023/01/29 09:01:57;;;;;;;85.88;56.20;;;;;;;-0.27;100.00;102737.56;5112637;28;20024;-55
2023/01/29 09:04:22;;;;;;;90.43;55.83;;;;;;;-0.24;100.00;102744.59;5112867;28;20043;-54
2023/01/29 09:06:47;;;;;;;88.57;54.42;;;;;;;-0.24;99.76;102747.13;5112416;28;20034;-54
2023/01/29 09:09:13;;;;;;;89.30;54.63;;;;;;;-0.23;99.86;102742.22;5112501;28;20027;-53
2023/01/29 09:11:39;;;;;;;99.88;60.80;;;;;;;-0.21;99.93;102734.75;5112530;28;20363;-54
2023/01/29 09:14:04;;;;;;;93.93;56.97;;;;;;;-0.22;99.62;102722.81;5112790;28;20020;-54
2023/01/29 09:16:30;;;;;;;86.72;55.13;;;;;;;-0.18;99.79;102722.44;5112238;28;20035;-54
2023/01/29 09:18:55;;;;;;;84.65;54.20;;;;;;;-0.15;99.96;102721.84;5112724;28;20024;-54
2023/01/29 09:21:20;;;;;;;90.65;56.08;;;;;;;-0.13;99.71;102717.81;5112613;28;20119;-54
2023/01/29 09:23:45;;;;;;;83.90;53.17;;;;;;;-0.09;99.60;102725.00;5112021;28;20024;-53
2023/01/29 09:26:11;;;;;;;103.15;61.05;;;;;;;-0.08;99.37;102717.56;5112872;28;20417;-54
2023/01/29 09:28:36;;;;;;;83.45;53.05;;;;;;;-0.02;99.20;102714.75;5112420;28;20463;-53
2023/01/29 09:31:02;;;;;;;82.10;52.88;;;;;;;0.01;98.60;102711.63;5113652;28;20022;-54
2023/01/29 09:33:28;;;;;;;81.15;51.60;;;;;;;0.02;97.92;102714.31;5116374;28;20391;-54
2023/01/29 09:35:53;;;;;;;86.72;53.63;;;;;;;0.05;98.18;102714.63;5116355;28;20110;-53
2023/01/29 09:38:18;;;;;;;79.28;50.42;;;;;;;0.08;97.20;102714.03;5115993;28;20409;-53
2023/01/29 09:40:54;;;;;;;80.30;50.92;;;;;;;0.10;97.36;102718.53;5116096;28;20047;-53
2023/01/29 09:43:25;;;;;;;85.82;54.25;;;;;;;0.19;97.47;102728.72;5116256;28;20028;-53
2023/01/29 09:46:14;;;;;;;82.80;52.15;;;;;;;0.24;98.03;102731.72;5116251;28;20035;-52
2023/01/29 09:48:40;;;;;;;76.47;49.85;;;;;;;0.26;96.63;102727.69;5115793;28;20035;-55
2023/01/29 09:51:18;;;;;;;75.57;50.88;;;;;;;0.27;96.10;102730.41;5115688;28;20118;-54
2023/01/29 09:53:56;;;;;;;78.63;49.00;;;;;;;0.31;96.63;102724.91;5116120;28;20019;-55
2023/01/29 09:56:27;;;;;;;72.97;45.83;;;;;;;0.33;95.54;102728.47;5116039;28;20031;-55
2023/01/29 09:58:55;;;;;;;72.38;46.40;;;;;;;0.35;95.34;102725.19;5115676;28;20105;-54
2023/01/29 10:01:46;;;;;;;76.85;47.08;;;;;;;0.37;95.80;102714.47;5115937;28;20106;-54
2023/01/29 10:04:23;;;;;;;69.78;46.05;;;;;;;0.38;94.14;102713.72;5115690;28;20048;-54
2023/01/29 10:07:01;;;;;;;75.00;48.60;;;;;;;0.42;94.89;102725.97;5115225;28;20031;-54
2023/01/29 10:09:51;;;;;;;70.38;45.70;;;;;;;0.49;95.08;102724.94;5115719;28;20062;-55
2023/01/29 10:12:35;;;;;;;69.57;45.55;;;;;;;0.49;94.41;102722.41;5115623;28;20020;-54
2023/01/29 10:15:18;;;;;;;95.63;56.33;;;;;;;0.48;94.23;102730.78;5115935;28;20035;-54
2023/01/29 10:18:14;;;;;;;251.02;140.95;;;;;;;0.51;93.58;102723.47;5115266;28;20529;-54
2023/01/29 10:21:13;;;;;;;78.40;52.90;;;;;;;0.55;94.20;102728.09;5114867;28;20035;-55
2023/01/29 10:24:01;;;;;;;75.82;51.38;;;;;;;0.63;94.81;102719.63;5115431;28;20027;-54
2023/01/29 10:26:28;;;;;;;91.15;59.70;;;;;;;0.62;92.87;102720.38;5074277;28;20423;-55
2023/01/29 10:28:57;;;;;;;71.95;47.95;;;;;;;0.67;94.08;102717.41;5115783;28;20020;-55
2023/01/29 10:31:38;;;;;;;71.38;46.70;;;;;;;0.68;92.83;102721.72;5115222;28;20049;-55
2023/01/29 10:34:26;;;;;;;65.10;44.33;;;;;;;0.71;92.94;102719.50;5114948;28;20051;-55
2023/01/29 10:36:54;;;;;;;67.15;42.97;;;;;;;0.72;92.75;102723.81;5115390;28;20039;-54
2023/01/29 10:39:24;;;;;;;67.15;43.47;;;;;;;0.74;93.13;102713.09;5115377;28;20034;-54
2023/01/29 10:41:55;;;;;;;64.45;41.50;;;;;;;0.78;92.46;102710.09;5114029;28;20486;-55
2023/01/29 10:44:36;;;;;;;65.07;43.20;;;;;;;0.80;91.42;102712.78;5114995;28;20104;-55
2023/01/29 10:47:26;;;;;;;66.10;45.13;;;;;;;0.85;91.88;102705.63;5114336;28;20032;-55
2023/01/29 10:50:05;;;;;;;60.80;40.25;;;;;;;0.88;91.69;102704.31;5115063;28;20435;-55
2023/01/29 10:52:39;;;;;;;63.70;39.47;;;;;;;0.90;91.29;102705.31;5114748;28;20068;-55
2023/01/29 10:55:19;;;;;;;61.03;40.80;;;;;;;0.92;91.11;102698.78;5114547;28;20073;-55
2023/01/29 10:58:14;;;;;;;58.10;37.70;;;;;;;0.95;90.99;102696.53;5114751;28;20107;-54
2023/01/29 11:00:40;;;;;;;60.15;39.00;;;;;;;0.99;90.99;102685.03;5114512;28;20024;-54
2023/01/29 11:03:23;;;;;;;56.63;37.95;;;;;;;1.07;90.79;102683.25;5114394;28;20024;-56
2023/01/29 11:06:28;;;;;;;59.85;37.03;;;;;;;1.11;89.53;102670.09;5114425;28;20081;-55
2023/01/29 11:09:25;;;;;;;61.42;40.45;;;;;;;1.14;90.22;102666.22;5114428;28;20028;-54
2023/01/29 11:11:59;;;;;;;58.70;38.22;;;;;;;1.14;89.10;102662.78;5114728;28;20034;-54
2023/01/29 11:14:30;;;;;;;54.53;35.90;;;;;;;1.19;89.33;102659.06;5114401;28;20471;-54
2023/01/29 11:16:55;;;;;;;57.15;37.35;;;;;;;1.18;88.91;102652.19;5114203;28;20084;-54
2023/01/29 11:19:41;;;;;;;66.90;44.17;;;;;;;1.23;89.67;102643.34;5114521;28;20035;-55
2023/01/29 11:22:14;;;;;;;59.33;38.47;;;;;;;1.31;89.09;102636.47;5113729;28;20031;-55
2023/01/29 11:24:40;;;;;;;71.35;55.80;;;;;;;1.30;88.62;102622.88;5114143;28;20016;-55
2023/01/29 11:27:24;;;;;;;58.42;40.45;;;;;;;1.37;88.17;102628.53;5114267;28;20032;-54
2023/01/29 11:29:51;;;;;;;57.58;37.75;;;;;;;1.35;87.65;102623.31;5113542;28;20061;-55
2023/01/29 11:32:22;;;;;;;55.15;36.80;;;;;;;1.34;87.07;102613.88;5114273;28;20023;-55
2023/01/29 11:35:04;;;;;;;54.28;35.35;;;;;;;1.38;87.24;102610.91;5113711;28;20455;-54
2023/01/29 11:37:37;;;;;;;55.80;36.05;;;;;;;1.40;86.91;102616.13;5113563;28;20019;-56
2023/01/29 11:40:17;;;;;;;52.35;34.83;;;;;;;1.43;86.82;102601.19;5114316;28;20118;-55
2023/01/29 11:42:44;;;;;;;52.33;35.17;;;;;;;1.47;86.91;102600.72;5113684;28;20051;-54